Time;durP1;ratioP1;P1;durP2;ratioP2;P2;SDS_P1;SDS_P2;PMS_P1;PMS_P2;Temp;Humidity;BMP_temperature;BMP_pressure;BME280_temperature;BME280_humidity;BME280_pressure;Samples;Min_cycle;Max_cycle;Signal;HPM_P1;HPM_P2
2024/01/27 05:00:49;;;;;;;1.00;0.90;;;3.80;97.30;;;;;;5911331;23;20593;-65
2024/01/27 05:03:14;;;;;;;4.20;1.73;;;3.80;97.30;;;;;;5026698;28;20863;-67
2024/01/27 05:05:43;;;;;;;1.20;1.10;;;3.80;97.30;;;;;;5027601;28;20207;-65
2024/01/27 05:08:09;;;;;;;1.00;0.90;;;3.80;97.30;;;;;;5027919;28;20188;-66
2024/01/27 05:10:36;;;;;;;1.00;0.90;;;3.80;97.30;;;;;;5028865;28;20523;-66
2024/01/27 05:13:02;;;;;;;1.63;1.63;;;3.80;97.30;;;;;;5041651;28;20953;-66
2024/01/27 05:15:28;;;;;;;6.13;1.67;;;3.70;97.30;;;;;;5044124;28;20982;-66
2024/01/27 05:17:53;;;;;;;2.23;2.03;;;3.70;97.30;;;;;;5038813;28;20728;-66
2024/01/27 05:20:19;;;;;;;2.30;2.10;;;3.70;97.30;;;;;;5040730;28;20458;-68
2024/01/27 05:22:45;;;;;;;1.00;0.90;;;3.70;97.30;;;;;;5025815;28;20274;-67
2024/01/27 05:25:11;;;;;;;1.10;1.00;;;3.70;97.30;;;;;;5039707;28;20180;-66
2024/01/27 05:27:40;;;;;;;1.00;0.90;;;3.60;97.30;;;;;;5033057;28;20419;-66
2024/01/27 05:30:06;;;;;;;2.13;1.53;;;3.60;97.30;;;;;;5047859;28;20259;-65
2024/01/27 05:32:32;;;;;;;1.00;0.90;;;3.60;97.30;;;;;;5034495;28;20505;-65
2024/01/27 05:34:57;;;;;;;1.00;0.90;;;3.70;97.30;;;;;;5037964;28;20439;-66
2024/01/27 05:37:23;;;;;;;1.00;0.90;;;3.70;97.30;;;;;;5040606;28;20255;-66
2024/01/27 05:39:48;;;;;;;1.00;0.90;;;3.70;97.30;;;;;;5026943;28;20184;-65
2024/01/27 05:42:14;;;;;;;1.00;0.90;;;3.70;97.30;;;;;;5047030;28;20223;-66
2024/01/27 05:44:40;;;;;;;1.00;0.90;;;3.70;97.30;;;;;;5032959;28;20570;-66
2024/01/27 05:47:06;;;;;;;1.00;0.90;;;3.70;97.30;;;;;;5036619;28;20199;-67
2024/01/27 05:49:32;;;;;;;2.50;1.10;;;3.80;97.30;;;;;;5028110;28;20482;-66
2024/01/27 05:51:57;;;;;;;1.03;0.93;;;3.80;97.30;;;;;;5036240;28;20465;-68
2024/01/27 05:54:23;;;;;;;1.00;0.90;;;3.80;97.30;;;;;;5042808;28;20176;-69
2024/01/27 05:56:49;;;;;;;1.00;0.90;;;3.90;97.30;;;;;;5035727;28;20219;-66
2024/01/27 05:59:14;;;;;;;1.23;1.13;;;3.90;97.30;;;;;;5022837;28;20430;-67
2024/01/27 06:01:40;;;;;;;1.00;0.90;;;3.90;97.30;;;;;;5031843;28;20289;-67
2024/01/27 06:04:06;;;;;;;1.47;1.40;;;4.00;97.30;;;;;;5043582;28;20222;-66
2024/01/27 06:06:32;;;;;;;1.23;1.13;;;4.00;97.30;;;;;;5033204;28;21069;-67
2024/01/27 06:08:57;;;;;;;1.10;1.00;;;4.00;97.30;;;;;;5032206;28;20415;-65
2024/01/27 06:11:24;;;;;;;1.10;1.00;;;4.10;97.30;;;;;;5034197;28;20239;-66
2024/01/27 06:13:50;;;;;;;1.00;0.90;;;4.10;97.30;;;;;;5037332;28;20182;-66
2024/01/27 06:16:18;;;;;;;1.00;0.90;;;4.10;97.30;;;;;;5035689;28;20411;-66
2024/01/27 06:18:44;;;;;;;2.90;2.70;;;4.10;97.30;;;;;;5044254;28;20180;-66
2024/01/27 06:21:10;;;;;;;1.00;0.90;;;4.10;97.30;;;;;;5040458;28;20939;-65
2024/01/27 06:23:36;;;;;;;36.67;2.40;;;4.10;97.30;;;;;;5047335;28;20203;-65
2024/01/27 06:26:08;;;;;;;0.80;0.70;;;4.10;97.30;;;;;;5038724;28;20450;-67
2024/01/27 06:28:34;;;;;;;0.80;0.70;;;4.10;97.30;;;;;;5047187;28;20176;-66
2024/01/27 06:31:00;;;;;;;0.90;0.80;;;4.10;97.30;;;;;;5045746;28;20470;-66
2024/01/27 06:33:26;;;;;;;1.90;1.80;;;4.10;97.30;;;;;;5031906;28;20426;-65
2024/01/27 06:35:51;;;;;;;1.67;1.57;;;4.10;97.30;;;;;;5038838;28;20433;-66
2024/01/27 06:38:17;;;;;;;2.57;2.37;;;4.10;97.30;;;;;;5030223;28;20181;-65
2024/01/27 06:40:42;;;;;;;0.90;0.80;;;4.10;97.30;;;;;;5031219;28;20234;-66
2024/01/27 06:43:10;;;;;;;0.90;0.80;;;4.10;97.30;;;;;;5040988;28;20184;-66
2024/01/27 06:45:36;;;;;;;1.10;1.00;;;4.10;97.30;;;;;;5051712;28;20185;-66
2024/01/27 06:48:01;;;;;;;0.90;0.80;;;4.10;97.30;;;;;;5045843;28;20429;-65
2024/01/27 06:50:27;;;;;;;1.00;0.90;;;4.10;97.30;;;;;;5035474;28;20205;-66
2024/01/27 06:52:52;;;;;;;9.53;1.60;;;4.00;97.30;;;;;;5033029;28;20195;-66
2024/01/27 06:55:18;;;;;;;1.30;1.20;;;4.00;97.30;;;;;;5051829;28;20789;-65
2024/01/27 06:57:43;;;;;;;1.13;1.03;;;4.00;97.30;;;;;;5050275;28;20198;-65
2024/01/27 07:00:13;;;;;;;0.90;0.80;;;3.90;97.30;;;;;;5033005;28;20697;-65
2024/01/27 07:02:42;;;;;;;0.90;0.80;;;3.90;97.30;;;;;;5038690;28;20228;-66
2024/01/27 07:05:08;;;;;;;1.00;0.90;;;3.90;97.30;;;;;;5031710;28;20937;-66
2024/01/27 07:07:33;;;;;;;0.90;0.80;;;3.90;97.30;;;;;;5030032;28;20426;-65
2024/01/27 07:09:59;;;;;;;2.60;2.40;;;3.80;97.30;;;;;;5038390;28;20464;-65
2024/01/27 07:12:25;;;;;;;1.53;1.43;;;3.80;97.30;;;;;;5033583;28;20279;-67
2024/01/27 07:14:52;;;;;;;72.97;2.20;;;3.80;97.30;;;;;;5023423;28;20177;-65
2024/01/27 07:17:17;;;;;;;1.00;0.90;;;3.80;97.30;;;;;;5027080;28;20921;-66
2024/01/27 07:19:43;;;;;;;1.00;0.90;;;3.80;97.30;;;;;;5030963;28;20438;-66
2024/01/27 07:22:09;;;;;;;1.40;1.30;;;3.80;97.30;;;;;;5034464;28;20271;-66
2024/01/27 07:24:34;;;;;;;0.90;0.80;;;3.80;97.30;;;;;;5033826;28;20207;-66
2024/01/27 07:27:00;;;;;;;1.00;0.90;;;3.80;97.30;;;;;;5046753;28;20604;-66
2024/01/27 07:29:26;;;;;;;0.90;0.80;;;3.80;97.30;;;;;;5045526;28;20303;-67
2024/01/27 07:31:52;;;;;;;1.40;1.30;;;3.80;97.30;;;;;;5029737;28;20730;-66
2024/01/27 07:34:17;;;;;;;3.27;2.10;;;3.80;97.30;;;;;;5045479;28;20469;-66
2024/01/27 07:36:44;;;;;;;1.00;0.90;;;3.90;97.30;;;;;;5035575;28;20176;-66
2024/01/27 07:39:09;;;;;;;1.47;1.37;;;3.90;97.30;;;;;;5033116;28;20271;-66
2024/01/27 07:41:35;;;;;;;1.73;1.00;;;3.90;97.30;;;;;;5051452;28;20526;-66
2024/01/27 07:44:09;;;;;;;3.53;3.03;;;3.90;97.30;;;;;;5041154;28;20276;-67
2024/01/27 07:46:34;;;;;;;1.23;1.13;;;3.90;97.30;;;;;;5049698;28;20184;-66
2024/01/27 07:49:02;;;;;;;2.07;1.93;;;3.90;97.30;;;;;;5040118;28;20431;-66
2024/01/27 07:51:28;;;;;;;0.93;0.83;;;3.90;97.30;;;;;;5026984;28;20192;-67
2024/01/27 07:53:53;;;;;;;1.20;1.10;;;3.90;97.30;;;;;;5042931;28;20507;-66
2024/01/27 07:56:19;;;;;;;1.07;0.97;;;4.00;97.30;;;;;;5038724;28;20176;-69
2024/01/27 07:58:44;;;;;;;1.00;0.90;;;4.00;97.30;;;;;;5040851;28;20176;-66
2024/01/27 08:01:10;;;;;;;3.53;1.10;;;4.10;97.30;;;;;;5040866;28;20232;-68
2024/01/27 08:03:35;;;;;;;11.13;2.60;;;4.10;97.30;;;;;;5042152;28;20180;-68
2024/01/27 08:06:05;;;;;;;1.17;1.07;;;4.10;97.30;;;;;;5042154;28;20190;-67
2024/01/27 08:08:30;;;;;;;1.07;0.97;;;4.10;97.30;;;;;;5049886;28;20262;-67
2024/01/27 08:10:56;;;;;;;1.00;0.90;;;4.10;97.30;;;;;;5041945;28;20466;-67
2024/01/27 08:13:21;;;;;;;1.83;1.73;;;4.10;97.30;;;;;;5038734;28;20673;-67
2024/01/27 08:15:47;;;;;;;1.37;1.27;;;4.10;97.30;;;;;;5043859;28;20199;-67
2024/01/27 08:18:12;;;;;;;1.87;1.77;;;4.20;97.30;;;;;;5040441;28;20188;-66
2024/01/27 08:20:38;;;;;;;1.30;1.20;;;4.20;97.30;;;;;;5041576;28;20753;-67
2024/01/27 08:23:04;;;;;;;1.20;1.10;;;4.30;97.30;;;;;;5031428;28;20617;-67
2024/01/27 08:25:29;;;;;;;1.33;1.23;;;4.40;97.30;;;;;;5041188;28;20176;-68
2024/01/27 08:27:55;;;;;;;1.03;1.00;;;4.40;97.30;;;;;;5035786;28;20193;-67
2024/01/27 08:30:20;;;;;;;1.17;1.07;;;4.40;97.30;;;;;;5033766;28;20220;-67
2024/01/27 08:32:45;;;;;;;1.17;1.07;;;4.50;97.30;;;;;;5036373;28;20202;-67
2024/01/27 08:35:11;;;;;;;2.00;1.40;;;4.50;97.30;;;;;;5019484;28;20645;-67
2024/01/27 08:37:38;;;;;;;1.00;0.90;;;4.50;97.30;;;;;;5029539;28;20279;-67
2024/01/27 08:40:05;;;;;;;1.00;1.00;;;4.50;97.30;;;;;;5022799;28;20209;-66
2024/01/27 08:42:31;;;;;;;7.00;1.83;;;4.60;97.30;;;;;;5029865;28;20980;-67
2024/01/27 08:44:56;;;;;;;1.33;1.23;;;4.60;97.30;;;;;;5027443;28;20510;-67
2024/01/27 08:47:22;;;;;;;1.40;1.30;;;4.70;97.30;;;;;;5036688;28;20187;-67
2024/01/27 08:49:47;;;;;;;1.30;1.20;;;4.70;97.30;;;;;;5034281;28;20585;-68
2024/01/27 08:52:13;;;;;;;1.00;0.90;;;4.70;97.30;;;;;;5009093;28;20664;-69
2024/01/27 08:54:38;;;;;;;8.33;3.23;;;4.80;97.30;;;;;;5032537;28;20192;-68
2024/01/27 08:57:04;;;;;;;2.80;2.13;;;4.80;97.30;;;;;;5030775;28;20227;-67
2024/01/27 08:59:30;;;;;;;1.30;1.20;;;4.80;97.30;;;;;;5033347;28;20204;-67
2024/01/27 09:01:56;;;;;;;1.77;1.67;;;4.80;97.30;;;;;;5025973;28;20475;-66
2024/01/27 09:04:21;;;;;;;1.10;1.00;;;4.90;97.30;;;;;;5033545;28;20181;-68
2024/01/27 09:06:47;;;;;;;1.13;1.03;;;4.90;97.30;;;;;;5040765;28;20184;-66
2024/01/27 09:09:13;;;;;;;2.13;1.97;;;4.90;97.30;;;;;;5027426;28;20185;-67
2024/01/27 09:11:38;;;;;;;2.60;1.57;;;5.00;97.30;;;;;;5024729;28;20258;-67
2024/01/27 09:14:07;;;;;;;2.30;2.10;;;5.20;97.30;;;;;;5022879;28;20885;-67
2024/01/27 09:16:32;;;;;;;1.00;0.90;;;5.20;97.30;;;;;;5033055;28;20648;-67
2024/01/27 09:18:58;;;;;;;1.23;1.20;;;5.40;97.30;;;;;;5045579;28;20428;-67
2024/01/27 09:21:28;;;;;;;3.83;1.20;;;5.60;97.30;;;;;;5044220;28;20623;-67
2024/01/27 09:23:54;;;;;;;1.00;0.90;;;5.60;97.30;;;;;;5028503;28;20728;-67
2024/01/27 09:26:20;;;;;;;1.10;1.00;;;5.70;97.30;;;;;;5030271;28;20928;-67
2024/01/27 09:28:53;;;;;;;15.73;1.17;;;5.70;97.30;;;;;;5030001;28;20430;-66
2024/01/27 09:31:22;;;;;;;4.50;1.83;;;5.70;97.30;;;;;;5026700;28;20263;-67
2024/01/27 09:33:53;;;;;;;1.50;1.40;;;5.70;97.30;;;;;;5028139;28;20947;-66
2024/01/27 09:36:19;;;;;;;2.73;2.00;;;5.80;97.30;;;;;;5028737;28;20411;-67
2024/01/27 09:38:45;;;;;;;1.60;1.43;;;5.80;97.30;;;;;;5027686;28;20461;-66
2024/01/27 09:41:13;;;;;;;7.70;1.87;;;6.00;97.30;;;;;;5037886;28;20431;-67
2024/01/27 09:43:46;;;;;;;11.73;2.17;;;6.00;97.30;;;;;;5036069;28;20172;-68
2024/01/27 09:46:12;;;;;;;1.63;1.53;;;6.00;97.30;;;;;;5032925;28;20472;-67
2024/01/27 09:48:38;;;;;;;1.30;1.20;;;6.00;97.30;;;;;;5027238;28;20429;-68
2024/01/27 09:51:05;;;;;;;7.13;4.50;;;6.10;97.30;;;;;;5033445;28;20512;-66
2024/01/27 09:53:30;;;;;;;22.07;2.00;;;6.00;97.30;;;;;;5032376;28;20468;-67
2024/01/27 09:55:58;;;;;;;0.90;0.80;;;6.00;97.30;;;;;;5027544;28;20431;-67
2024/01/27 09:58:27;;;;;;;1.50;1.40;;;6.00;97.30;;;;;;5037477;28;20173;-66
2024/01/27 10:00:55;;;;;;;14.87;1.13;;;6.10;97.30;;;;;;5022969;28;20471;-67
2024/01/27 10:03:26;;;;;;;1.13;1.03;;;6.20;97.30;;;;;;5041509;28;20786;-66
2024/01/27 10:05:54;;;;;;;1.27;1.17;;;6.30;97.30;;;;;;5042083;28;20437;-66
2024/01/27 10:08:21;;;;;;;2.10;1.93;;;6.40;97.30;;;;;;5032566;28;20506;-67
2024/01/27 10:10:47;;;;;;;1.23;1.13;;;6.40;97.30;;;;;;5027901;28;20465;-66
2024/01/27 10:13:16;;;;;;;0.90;0.80;;;6.40;97.30;;;;;;5028688;28;20424;-66
2024/01/27 10:15:42;;;;;;;10.43;1.53;;;6.50;97.30;;;;;;5042790;28;20210;-67
2024/01/27 10:18:12;;;;;;;1.23;1.20;;;6.60;97.30;;;;;;5021162;28;20782;-67
2024/01/27 10:20:39;;;;;;;1.17;1.07;;;6.70;97.30;;;;;;5031306;28;20584;-67
2024/01/27 10:23:12;;;;;;;1.57;1.47;;;6.70;97.30;;;;;;5033392;28;20451;-67
2024/01/27 10:25:41;;;;;;;1.53;1.43;;;6.70;97.30;;;;;;5033583;28;20833;-67
2024/01/27 10:28:08;;;;;;;1.67;1.63;;;6.70;97.30;;;;;;5029218;28;20458;-67
2024/01/27 10:30:34;;;;;;;1.50;1.40;;;6.90;97.30;;;;;;5034198;28;20513;-66
2024/01/27 10:32:59;;;;;;;0.90;0.80;;;6.90;97.30;;;;;;5028488;28;20419;-67
2024/01/27 10:35:26;;;;;;;9.83;2.00;;;7.00;97.30;;;;;;5032773;28;20180;-65
2024/01/27 10:37:53;;;;;;;3.00;2.17;;;7.00;97.30;;;;;;5031486;28;20275;-66
2024/01/27 10:40:18;;;;;;;3.17;1.53;;;7.10;97.30;;;;;;5052116;28;20792;-66
2024/01/27 10:42:45;;;;;;;1.33;1.30;;;7.20;97.30;;;;;;5044852;28;20421;-66
2024/01/27 10:45:11;;;;;;;2.80;2.60;;;7.20;97.30;;;;;;5035980;28;20185;-67
2024/01/27 10:47:38;;;;;;;5.30;3.43;;;7.10;97.30;;;;;;5032045;28;20419;-65
2024/01/27 10:50:08;;;;;;;1.17;1.03;;;7.10;97.30;;;;;;5044001;28;20961;-66
2024/01/27 10:52:41;;;;;;;3.57;3.33;;;7.20;97.30;;;;;;5032426;28;20774;-66
2024/01/27 10:55:09;;;;;;;1.23;1.13;;;7.30;97.30;;;;;;5050318;28;20496;-65
2024/01/27 10:57:37;;;;;;;3.47;1.97;;;7.40;97.30;;;;;;5034570;28;20444;-65
2024/01/27 11:00:09;;;;;;;2.60;2.40;;;7.40;97.30;;;;;;5040422;28;20424;-66
2024/01/27 11:02:35;;;;;;;1.03;0.97;;;7.50;97.30;;;;;;5034677;28;21025;-65
2024/01/27 11:05:07;;;;;;;2.40;2.27;;;7.40;97.30;;;;;;5041600;28;20481;-66
2024/01/27 11:07:34;;;;;;;1.23;1.23;;;7.50;97.30;;;;;;5049702;28;20419;-65
2024/01/27 11:10:00;;;;;;;1.13;1.03;;;7.60;97.30;;;;;;5047950;28;20822;-65
2024/01/27 11:12:26;;;;;;;1.67;1.60;;;7.70;97.30;;;;;;5035898;28;20435;-66
2024/01/27 11:14:52;;;;;;;1.90;1.20;;;7.80;97.30;;;;;;5042846;28;20599;-65
2024/01/27 11:17:18;;;;;;;3.17;2.23;;;7.80;97.30;;;;;;5032920;28;20965;-65
2024/01/27 11:19:47;;;;;;;1.20;1.10;;;7.80;97.30;;;;;;5034246;28;20509;-65
2024/01/27 11:22:27;;;;;;;2.50;1.40;;;7.90;97.30;;;;;;5034336;28;20954;-66
2024/01/27 11:25:15;;;;;;;2.43;2.00;;;8.00;97.30;;;;;;5039190;28;20411;-67
2024/01/27 11:27:43;;;;;;;2.03;1.93;;;8.10;97.30;;;;;;5035024;28;20446;-66
2024/01/27 11:30:27;;;;;;;9.03;3.73;;;8.30;97.30;;;;;;5051043;28;20881;-67
2024/01/27 11:32:55;;;;;;;7.67;3.20;;;8.20;97.20;;;;;;5038999;28;20414;-65
2024/01/27 11:35:21;;;;;;;1.10;1.00;;;8.30;97.20;;;;;;5041103;28;20423;-66
2024/01/27 11:37:48;;;;;;;2.30;2.10;;;8.30;96.60;;;;;;5049946;28;20425;-66
2024/01/27 11:40:22;;;;;;;1.60;1.50;;;8.50;96.70;;;;;;5056997;23;20229;-93
2024/01/27 11:43:22;;;;;;;1.77;1.67;;;8.60;96.30;;;;;;5008257;28;20426;-92
2024/01/27 11:46:32;;;;;;;1.83;1.73;;;8.80;96.00;;;;;;5011877;28;20528;-90
2024/01/27 11:51:26;;;;;;;29.47;1.53;;;8.80;95.30;;;;;;5027462;23;20492;-62
2024/01/27 11:53:51;;;;;;;1.17;1.10;;;8.90;95.10;;;;;;5014109;28;20582;-62
2024/01/27 11:56:17;;;;;;;2.40;2.23;;;8.90;94.70;;;;;;5008881;28;20199;-62
2024/01/27 11:58:48;;;;;;;9.30;1.77;;;8.80;94.60;;;;;;5009468;28;20307;-63
2024/01/27 12:01:14;;;;;;;5.87;2.33;;;8.90;94.80;;;;;;5010581;28;20197;-63
2024/01/27 12:03:40;;;;;;;1.90;1.80;;;9.10;94.70;;;;;;5017414;28;20447;-63
2024/01/27 12:06:07;;;;;;;2.60;2.40;;;9.20;94.50;;;;;;5013059;28;20516;-62
2024/01/27 12:08:35;;;;;;;6.53;1.97;;;9.20;94.40;;;;;;5012589;28;20989;-62
2024/01/27 12:11:01;;;;;;;37.30;2.13;;;9.20;93.80;;;;;;5010364;28;20498;-61
2024/01/27 12:13:27;;;;;;;4.97;3.07;;;9.20;94.40;;;;;;5015607;28;20420;-62
2024/01/27 12:15:53;;;;;;;5.37;3.50;;;9.20;93.90;;;;;;5011908;28;20262;-62
2024/01/27 12:18:18;;;;;;;1.97;1.90;;;9.30;93.50;;;;;;5013143;28;20855;-62
2024/01/27 12:20:45;;;;;;;1.40;1.30;;;9.40;93.70;;;;;;5012857;28;20205;-62
2024/01/27 12:23:10;;;;;;;1.13;1.03;;;9.30;93.20;;;;;;5008938;28;20466;-62
2024/01/27 12:25:36;;;;;;;2.23;2.03;;;9.30;93.50;;;;;;5008640;28;20555;-62
2024/01/27 12:28:02;;;;;;;4.63;1.33;;;9.40;93.20;;;;;;5008713;28;20755;-62
2024/01/27 12:30:28;;;;;;;1.13;1.13;;;9.60;92.60;;;;;;5011313;28;20216;-62
2024/01/27 12:32:54;;;;;;;7.10;1.90;;;9.50;92.10;;;;;;5016515;28;20421;-62
2024/01/27 12:35:19;;;;;;;18.63;3.10;;;9.70;92.60;;;;;;5011626;28;20660;-62
2024/01/27 12:37:45;;;;;;;6.23;2.00;;;9.70;92.00;;;;;;5017688;28;20581;-62
2024/01/27 12:40:18;;;;;;;4.10;1.73;;;9.90;91.70;;;;;;5010147;28;20177;-62
2024/01/27 12:42:44;;;;;;;2.63;1.77;;;10.10;91.90;;;;;;5010169;28;20177;-61
2024/01/27 12:45:09;;;;;;;1.53;1.40;;;10.20;90.20;;;;;;5012225;28;20482;-62
2024/01/27 12:47:35;;;;;;;1.30;1.20;;;10.10;91.10;;;;;;5013099;28;20181;-62
2024/01/27 12:50:00;;;;;;;2.30;1.33;;;10.20;91.30;;;;;;5009472;28;20712;-62
2024/01/27 12:52:27;;;;;;;1.00;0.90;;;10.40;90.70;;;;;;5008233;28;20220;-62
2024/01/27 12:54:53;;;;;;;1.93;1.83;;;10.60;89.90;;;;;;5010070;28;20670;-62
2024/01/27 12:57:19;;;;;;;1.33;1.23;;;10.60;89.10;;;;;;5010924;28;20846;-62
2024/01/27 12:59:45;;;;;;;1.00;0.90;;;10.60;89.80;;;;;;5010702;28;20762;-61
2024/01/27 13:02:10;;;;;;;1.20;1.10;;;10.70;89.50;;;;;;5011864;28;20749;-62
2024/01/27 13:04:36;;;;;;;3.90;1.67;;;10.80;89.00;;;;;;5011986;28;20231;-62
2024/01/27 13:07:01;;;;;;;2.20;1.10;;;10.90;89.50;;;;;;5008232;28;20177;-61
2024/01/27 13:09:27;;;;;;;1.10;1.00;;;11.10;88.70;;;;;;5008504;28;20183;-62
2024/01/27 13:11:52;;;;;;;1.00;0.90;;;11.20;88.60;;;;;;5009069;28;20276;-62
2024/01/27 13:14:20;;;;;;;3.00;1.57;;;11.40;88.40;;;;;;5011627;28;20181;-62
2024/01/27 13:16:46;;;;;;;5.40;1.87;;;11.40;87.60;;;;;;5008162;28;20185;-62
2024/01/27 13:19:11;;;;;;;1.83;1.60;;;11.30;87.00;;;;;;5010150;28;20503;-62
2024/01/27 13:21:37;;;;;;;1.43;1.33;;;11.30;87.70;;;;;;5010955;28;20685;-62
2024/01/27 13:24:03;;;;;;;1.33;1.23;;;11.60;87.40;;;;;;5013164;28;20612;-62
2024/01/27 13:26:28;;;;;;;3.17;1.50;;;11.90;87.10;;;;;;5012560;28;20199;-62
2024/01/27 13:28:54;;;;;;;2.10;1.10;;;11.80;86.60;;;;;;5014221;28;20168;-62
2024/01/27 13:31:19;;;;;;;1.30;1.20;;;11.60;86.40;;;;;;5008797;28;20268;-62
2024/01/27 13:33:45;;;;;;;4.50;1.70;;;11.80;86.80;;;;;;5010975;28;20234;-62
2024/01/27 13:36:10;;;;;;;1.80;1.70;;;11.90;86.00;;;;;;5011736;28;20657;-62
2024/01/27 13:38:37;;;;;;;1.20;1.10;;;11.90;85.70;;;;;;5010585;28;20185;-62
2024/01/27 13:41:03;;;;;;;1.70;1.40;;;11.80;86.50;;;;;;5004942;28;20680;-62
2024/01/27 13:43:28;;;;;;;4.30;2.10;;;12.00;85.60;;;;;;5008754;28;20419;-61
2024/01/27 13:45:54;;;;;;;2.53;1.17;;;11.50;85.20;;;;;;5014942;28;20188;-62
2024/01/27 13:48:20;;;;;;;9.47;1.67;;;11.40;86.00;;;;;;5020808;28;20220;-62
2024/01/27 13:50:46;;;;;;;1.63;1.53;;;11.50;86.10;;;;;;5020697;28;20486;-62
2024/01/27 13:53:11;;;;;;;1.10;1.00;;;11.60;86.30;;;;;;5015353;28;20412;-62
2024/01/27 13:55:37;;;;;;;1.47;1.13;;;11.90;85.90;;;;;;5010478;28;20179;-62
2024/01/27 13:58:03;;;;;;;1.23;1.13;;;11.80;85.30;;;;;;5010258;28;20276;-62
2024/01/27 14:00:30;;;;;;;1.20;1.10;;;12.00;85.50;;;;;;5010786;28;20209;-63
2024/01/27 14:02:56;;;;;;;1.47;1.37;;;12.10;84.90;;;;;;5010735;28;20412;-63
2024/01/27 14:05:21;;;;;;;1.20;1.10;;;12.30;84.90;;;;;;5010635;28;20428;-62
2024/01/27 14:07:47;;;;;;;0.93;0.83;;;12.20;84.30;;;;;;5010656;28;20184;-62
2024/01/27 14:10:13;;;;;;;1.30;1.20;;;11.80;84.90;;;;;;5011531;28;20209;-62
2024/01/27 14:12:39;;;;;;;1.93;1.77;;;12.00;84.60;;;;;;5010251;28;20683;-63
2024/01/27 14:15:09;;;;;;;1.30;1.20;;;11.70;84.60;;;;;;5008636;28;20428;-63
2024/01/27 14:17:36;;;;;;;1.30;1.03;;;11.70;85.00;;;;;;5008200;28;20181;-62
2024/01/27 14:20:03;;;;;;;1.67;1.57;;;11.50;85.30;;;;;;5007243;28;20845;-63
2024/01/27 14:22:29;;;;;;;5.83;1.53;;;11.30;85.80;;;;;;5009067;28;20518;-64
2024/01/27 14:24:54;;;;;;;1.83;1.10;;;11.40;86.40;;;;;;5008353;28;20879;-63
2024/01/27 14:27:25;;;;;;;8.07;1.33;;;11.50;86.30;;;;;;5008165;28;20252;-63
2024/01/27 14:29:56;;;;;;;3.63;1.20;;;11.70;85.60;;;;;;5018114;28;20548;-63
2024/01/27 14:32:21;;;;;;;1.70;1.30;;;11.60;85.00;;;;;;5009428;28;20527;-63
2024/01/27 14:34:48;;;;;;;1.10;1.00;;;11.20;85.70;;;;;;5015624;28;20522;-63
2024/01/27 14:37:16;;;;;;;1.10;1.00;;;11.30;86.50;;;;;;5014408;28;20180;-63
2024/01/27 14:39:45;;;;;;;1.27;1.17;;;11.50;85.90;;;;;;5013786;28;21065;-63
2024/01/27 14:42:12;;;;;;;0.90;0.80;;;11.60;85.70;;;;;;5015559;28;20998;-63
2024/01/27 14:44:37;;;;;;;1.17;1.10;;;11.40;85.40;;;;;;5025419;28;20455;-63
2024/01/27 14:47:04;;;;;;;2.40;2.07;;;11.10;86.10;;;;;;5019593;28;20454;-63
2024/01/27 14:49:30;;;;;;;2.70;2.37;;;10.90;87.00;;;;;;5019310;28;20224;-63
2024/01/27 14:51:58;;;;;;;0.90;0.80;;;10.60;87.40;;;;;;5010505;28;20446;-63
2024/01/27 14:54:24;;;;;;;3.00;1.73;;;10.30;87.80;;;;;;5015962;28;20184;-63
2024/01/27 14:56:49;;;;;;;0.90;0.80;;;10.30;88.60;;;;;;5007283;28;20424;-63
2024/01/27 14:59:15;;;;;;;1.30;1.30;;;10.20;89.10;;;;;;5008139;28;20655;-63
2024/01/27 15:01:41;;;;;;;1.63;1.53;;;10.10;89.00;;;;;;5014961;28;20600;-63
2024/01/27 15:04:07;;;;;;;1.73;1.53;;;9.90;89.10;;;;;;5026480;28;20411;-63
2024/01/27 15:06:33;;;;;;;1.97;1.47;;;9.80;89.20;;;;;;5019737;28;20320;-63
2024/01/27 15:08:59;;;;;;;1.10;1.00;;;9.80;89.30;;;;;;5018756;28;20271;-63
2024/01/27 15:11:24;;;;;;;1.47;1.10;;;9.60;89.50;;;;;;5020034;28;20995;-63
2024/01/27 15:13:50;;;;;;;1.00;0.90;;;9.30;89.70;;;;;;5014000;28;20428;-63
2024/01/27 15:16:16;;;;;;;1.10;1.00;;;8.90;90.80;;;;;;5012341;28;20193;-63
2024/01/27 15:18:43;;;;;;;1.20;1.10;;;8.60;91.60;;;;;;5014154;28;20181;-63
2024/01/27 15:21:10;;;;;;;0.90;0.80;;;8.50;92.30;;;;;;5019031;28;20752;-63
2024/01/27 15:23:36;;;;;;;3.23;1.00;;;8.40;92.80;;;;;;5011184;28;20428;-62
2024/01/27 15:26:03;;;;;;;32.67;1.87;;;8.20;93.20;;;;;;5018729;28;20459;-63
2024/01/27 15:28:30;;;;;;;6.73;1.57;;;8.10;93.60;;;;;;5018204;28;20419;-63
2024/01/27 15:30:55;;;;;;;1.53;1.43;;;8.00;94.00;;;;;;5010357;28;20471;-63
2024/01/27 15:33:20;;;;;;;0.90;0.80;;;8.00;94.10;;;;;;5012008;28;20770;-63
2024/01/27 15:35:46;;;;;;;7.73;3.53;;;8.00;94.50;;;;;;5011259;28;20184;-63
2024/01/27 15:38:12;;;;;;;1.20;1.10;;;8.00;94.50;;;;;;5011299;28;20193;-63
2024/01/27 15:40:38;;;;;;;1.20;1.10;;;7.80;94.80;;;;;;5010184;28;20455;-63
2024/01/27 15:43:04;;;;;;;0.90;0.80;;;7.60;95.40;;;;;;5009552;28;20177;-63
2024/01/27 15:45:31;;;;;;;1.53;1.43;;;7.40;95.80;;;;;;5011011;28;20205;-63
2024/01/27 15:47:59;;;;;;;1.13;1.07;;;7.20;96.30;;;;;;5011371;28;20514;-63
2024/01/27 15:50:27;;;;;;;1.00;0.90;;;7.10;96.60;;;;;;5008949;28;20568;-64
2024/01/27 15:52:54;;;;;;;1.00;0.90;;;7.00;96.90;;;;;;5008405;28;20443;-64
2024/01/27 15:55:19;;;;;;;0.90;0.80;;;6.90;97.30;;;;;;5010238;28;21185;-64
2024/01/27 15:57:45;;;;;;;2.90;1.47;;;6.80;97.30;;;;;;5008852;28;20519;-63
2024/01/27 16:00:11;;;;;;;3.93;1.07;;;6.80;97.30;;;;;;5010147;28;20189;-64
2024/01/27 16:02:37;;;;;;;1.10;1.10;;;6.70;97.30;;;;;;5010492;28;20189;-64
2024/01/27 16:05:03;;;;;;;1.47;1.37;;;6.70;97.30;;;;;;5010934;28;20421;-64
2024/01/27 16:07:29;;;;;;;1.43;1.33;;;6.60;97.30;;;;;;5011460;28;20423;-64
2024/01/27 16:09:57;;;;;;;1.27;1.17;;;6.60;97.30;;;;;;5010607;28;20512;-63
2024/01/27 16:12:22;;;;;;;17.70;2.33;;;6.50;97.30;;;;;;5011075;28;20801;-64
2024/01/27 16:14:48;;;;;;;4.40;1.50;;;6.50;97.30;;;;;;5011288;28;20825;-63
2024/01/27 16:17:13;;;;;;;8.03;1.67;;;6.40;97.30;;;;;;5009855;28;20174;-64
2024/01/27 16:19:39;;;;;;;1.50;1.40;;;6.40;97.30;;;;;;5011214;28;20196;-64
2024/01/27 16:22:04;;;;;;;3.00;1.50;;;6.40;97.30;;;;;;5009894;28;20201;-64
2024/01/27 16:24:30;;;;;;;1.93;1.80;;;6.30;97.30;;;;;;5009145;28;20185;-64
2024/01/27 16:26:55;;;;;;;3.23;2.37;;;6.30;97.30;;;;;;5010123;28;20189;-64
2024/01/27 16:29:21;;;;;;;2.37;2.17;;;6.30;97.30;;;;;;5008821;28;20603;-64
2024/01/27 16:31:46;;;;;;;1.90;1.80;;;6.20;97.30;;;;;;5010438;28;20200;-64
2024/01/27 16:34:12;;;;;;;9.60;2.97;;;6.10;97.30;;;;;;5008748;28;20212;-64
2024/01/27 16:36:39;;;;;;;1.20;1.10;;;6.00;97.30;;;;;;5010386;28;20165;-64
2024/01/27 16:39:06;;;;;;;1.10;1.00;;;5.90;97.30;;;;;;5010233;28;20916;-63
2024/01/27 16:41:32;;;;;;;1.20;1.10;;;5.80;97.30;;;;;;5009458;28;20468;-63
2024/01/27 16:43:58;;;;;;;1.23;1.13;;;5.80;97.30;;;;;;5009895;28;20420;-64
2024/01/27 16:46:24;;;;;;;3.07;1.63;;;5.70;97.30;;;;;;5008963;28;20185;-64
2024/01/27 16:48:50;;;;;;;1.40;1.30;;;5.70;97.30;;;;;;5008409;28;20185;-64
2024/01/27 16:51:16;;;;;;;1.77;1.67;;;5.60;97.30;;;;;;5003022;28;20476;-64
2024/01/27 16:53:42;;;;;;;3.50;1.60;;;5.60;97.30;;;;;;5008019;28;20439;-64
2024/01/27 16:56:07;;;;;;;3.00;2.80;;;5.50;97.30;;;;;;5008295;28;20666;-64
2024/01/27 16:58:33;;;;;;;1.20;1.10;;;5.60;97.30;;;;;;5009634;28;20181;-64
2024/01/27 17:00:58;;;;;;;1.77;1.67;;;5.60;97.30;;;;;;5009261;28;20528;-63
2024/01/27 17:03:24;;;;;;;1.73;1.20;;;5.60;97.30;;;;;;5007534;28;20673;-64
2024/01/27 17:05:50;;;;;;;1.07;0.97;;;5.50;97.30;;;;;;5007357;28;20177;-64
2024/01/27 17:08:15;;;;;;;1.50;1.40;;;5.50;97.30;;;;;;5007012;28;20412;-64
2024/01/27 17:10:41;;;;;;;1.20;1.10;;;5.40;97.30;;;;;;5015895;28;20220;-65
2024/01/27 17:13:07;;;;;;;5.00;3.57;;;5.40;97.30;;;;;;5016267;28;20177;-64
2024/01/27 17:15:34;;;;;;;1.90;1.50;;;5.20;97.30;;;;;;5017125;28;20174;-64
2024/01/27 17:18:00;;;;;;;1.50;1.40;;;5.10;97.30;;;;;;5015959;28;20433;-64
2024/01/27 17:20:25;;;;;;;5.37;3.63;;;5.00;97.30;;;;;;5007720;28;20448;-64
2024/01/27 17:22:51;;;;;;;2.63;2.43;;;4.80;97.30;;;;;;5015032;28;20188;-64
2024/01/27 17:25:17;;;;;;;3.80;3.60;;;4.70;97.30;;;;;;5020758;28;20176;-64
2024/01/27 17:27:42;;;;;;;1.67;1.53;;;4.70;97.30;;;;;;5019747;28;20217;-64
2024/01/27 17:30:08;;;;;;;1.40;1.30;;;4.60;97.30;;;;;;5007255;28;20488;-64
2024/01/27 17:32:35;;;;;;;2.50;2.30;;;4.60;97.30;;;;;;5016702;28;20173;-64
2024/01/27 17:35:02;;;;;;;1.07;0.97;;;4.50;97.30;;;;;;5007947;28;20796;-64
2024/01/27 17:37:27;;;;;;;2.17;1.90;;;4.30;97.30;;;;;;5015800;28;20428;-64
2024/01/27 17:39:53;;;;;;;3.17;1.60;;;4.10;97.30;;;;;;5016401;28;20946;-64
2024/01/27 17:42:18;;;;;;;3.73;1.70;;;4.00;97.30;;;;;;5007185;28;20251;-64
2024/01/27 17:44:44;;;;;;;1.23;1.20;;;4.00;97.30;;;;;;5008776;28;20196;-64
2024/01/27 17:47:09;;;;;;;9.80;3.93;;;4.00;97.30;;;;;;5017274;28;20177;-64
2024/01/27 17:49:35;;;;;;;2.97;2.77;;;4.00;97.30;;;;;;5008529;28;20224;-64
2024/01/27 17:52:01;;;;;;;11.13;3.53;;;4.00;97.30;;;;;;5007506;28;20193;-64
2024/01/27 17:54:28;;;;;;;23.73;2.10;;;3.90;97.30;;;;;;5022417;28;20172;-64